createdAt,value
2019-02-04T00:00:52.812Z,101782.55
2019-02-04T00:03:35.953Z,101775.77
2019-02-04T00:06:06.925Z,101773.14
2019-02-04T00:08:37.912Z,101773.14
2019-02-04T00:11:09.017Z,101782.92
2019-02-04T00:13:40.035Z,101785.09
2019-02-04T00:16:11.088Z,101777.83
2019-02-04T00:18:42.077Z,101787.16
2019-02-04T00:21:13.042Z,101781.57
2019-02-04T00:23:44.046Z,101776.08
2019-02-04T00:26:15.408Z,101777.83
2019-02-04T00:28:46.314Z,101777.75
2019-02-04T00:31:17.305Z,101775.26
2019-02-04T00:33:48.403Z,101774.83
2019-02-04T00:36:19.324Z,101776.98
2019-02-04T00:38:50.290Z,101776.58
2019-02-04T00:41:21.286Z,101776.52
2019-02-04T00:43:52.388Z,101783.38
2019-02-04T00:46:23.578Z,101780.73
2019-02-04T00:48:54.524Z,101782.37
2019-02-04T00:51:25.577Z,101789.97
2019-02-04T00:53:56.604Z,101788.66
2019-02-04T00:56:27.655Z,101798.03
2019-02-04T00:58:58.594Z,101800.02
2019-02-04T01:01:29.517Z,101801.71
2019-02-04T01:04:00.541Z,101800.70
2019-02-04T01:06:31.623Z,101805.77
2019-02-04T01:09:02.747Z,101802.48
2019-02-04T01:11:33.766Z,101802.83
2019-02-04T01:14:04.826Z,101808.00
2019-02-04T01:16:35.791Z,101808.00
2019-02-04T01:19:06.970Z,101819.77
2019-02-04T01:21:38.330Z,101823.50
2019-02-04T01:24:09.598Z,101818.36
2019-02-04T01:26:40.648Z,101822.14
2019-02-04T01:29:11.774Z,101819.69
2019-02-04T01:31:42.713Z,101820.39
2019-02-04T01:34:14.044Z,101821.58
2019-02-04T01:36:45.079Z,101825.29
2019-02-04T01:39:16.058Z,101833.26
2019-02-04T01:41:47.067Z,101832.75
2019-02-04T01:44:18.468Z,101845.31
2019-02-04T01:46:51.512Z,101843.46
2019-02-04T01:49:22.144Z,101844.42
2019-02-04T01:51:53.140Z,101841.42
2019-02-04T01:54:24.434Z,101843.91
2019-02-04T01:56:55.387Z,101850.22
2019-02-04T01:59:26.498Z,101857.36
2019-02-04T02:01:57.870Z,101853.81
2019-02-04T02:04:28.851Z,101865.11
2019-02-04T02:07:00.177Z,101866.66
2019-02-04T02:09:31.225Z,101867.87
2019-02-04T02:12:02.512Z,101865.21
2019-02-04T02:14:33.533Z,101874.45
2019-02-04T02:17:04.857Z,101879.34
2019-02-04T02:19:35.890Z,101880.16
2019-02-04T02:22:06.923Z,101886.48
2019-02-04T02:24:38.005Z,101883.03
2019-02-04T02:27:08.949Z,101886.42
2019-02-04T02:29:39.958Z,101890.69
2019-02-04T02:32:11.258Z,101888.02
2019-02-04T02:34:42.248Z,101889.39
2019-02-04T02:37:13.294Z,101889.39
2019-02-04T02:39:44.299Z,101887.17
2019-02-04T02:42:15.668Z,101888.38
2019-02-04T02:44:46.701Z,101885.97
2019-02-04T02:47:17.704Z,101882.50
2019-02-04T02:49:48.757Z,101892.97
2019-02-04T02:52:19.889Z,101899.33
2019-02-04T02:54:51.112Z,101894.27
2019-02-04T02:57:22.141Z,101891.24
2019-02-04T02:59:53.131Z,101891.54
2019-02-04T03:02:24.170Z,101894.99
2019-02-04T03:04:55.179Z,101899.69
2019-02-04T03:07:26.195Z,101896.69
2019-02-04T03:09:57.295Z,101900.95
2019-02-04T03:12:28.231Z,101898.05
2019-02-04T03:14:59.243Z,101898.69
2019-02-04T03:17:31.576Z,101903.94
2019-02-04T03:20:02.555Z,101910.27
2019-02-04T03:22:33.561Z,101903.81
2019-02-04T03:25:05.187Z,101910.86
2019-02-04T03:27:36.211Z,101906.45
2019-02-04T03:30:16.089Z,101902.47
2019-02-04T03:32:47.072Z,101910.61
2019-02-04T03:35:18.197Z,101913.14
2019-02-04T03:37:52.219Z,101910.94
2019-02-04T03:40:25.101Z,101905.50
2019-02-04T03:42:56.107Z,101909.53
2019-02-04T03:45:27.052Z,101907.94
2019-02-04T03:48:06.425Z,101905.44
2019-02-04T03:50:30.955Z,101907.27
2019-02-04T03:53:01.933Z,101909.34
2019-02-04T03:55:32.938Z,101905.73
2019-02-04T03:58:03.980Z,101912.56
2019-02-04T04:00:37.476Z,101918.50
2019-02-04T04:03:09.027Z,101923.09
2019-02-04T04:05:40.333Z,101913.38
2019-02-04T04:08:11.416Z,101921.34
2019-02-04T04:10:42.390Z,101919.38
2019-02-04T04:13:13.305Z,101927.78
2019-02-04T04:15:44.707Z,101925.52
2019-02-04T04:18:16.320Z,101930.64
2019-02-04T04:20:47.259Z,101930.69
2019-02-04T04:23:18.487Z,101934.24
2019-02-04T04:25:49.524Z,101928.47
2019-02-04T04:28:20.687Z,101927.67
2019-02-04T04:30:51.612Z,101930.16
2019-02-04T04:33:22.719Z,101919.58
2019-02-04T04:35:53.734Z,101926.89
2019-02-04T04:38:24.830Z,101925.63
2019-02-04T04:40:55.848Z,101927.31
2019-02-04T04:43:26.833Z,101928.69
2019-02-04T04:45:57.828Z,101926.23
2019-02-04T04:48:29.223Z,101931.22
2019-02-04T04:51:00.209Z,101922.30
2019-02-04T04:53:31.109Z,101922.69
2019-02-04T04:56:02.150Z,101929.08
2019-02-04T04:58:33.136Z,101927.73
2019-02-04T05:01:04.227Z,101929.72
2019-02-04T05:03:35.220Z,101931.87
2019-02-04T05:06:06.209Z,101932.34
2019-02-04T05:08:37.213Z,101936.21
2019-02-04T05:11:08.261Z,101934.77
2019-02-04T05:13:39.452Z,101938.45
2019-02-04T05:16:10.783Z,101935.22
2019-02-04T05:18:41.860Z,101939.42
2019-02-04T05:21:12.789Z,101939.38
2019-02-04T05:23:43.793Z,101942.72
2019-02-04T05:26:14.836Z,101942.19
2019-02-04T05:28:46.907Z,101943.89
2019-02-04T05:31:18.162Z,101940.09
2019-02-04T05:33:49.247Z,101940.44
2019-02-04T05:36:20.287Z,101939.86
2019-02-04T05:38:51.548Z,101944.18
2019-02-04T05:41:23.816Z,101947.59
2019-02-04T05:43:55.120Z,101950.52
2019-02-04T05:46:26.156Z,101952.53
2019-02-04T05:48:57.353Z,101951.42
2019-02-04T05:51:28.639Z,101953.02
2019-02-04T05:53:59.730Z,101960.05
2019-02-04T05:56:30.709Z,101945.27
2019-02-04T05:59:01.712Z,101930.22
2019-02-04T06:01:32.959Z,101933.61
2019-02-04T06:04:03.946Z,101936.23
2019-02-04T06:06:34.853Z,101939.05
2019-02-04T06:09:08.632Z,101939.41
2019-02-04T06:11:39.607Z,101939.41
2019-02-04T06:14:10.569Z,101933.81
2019-02-04T06:16:42.178Z,101933.81
2019-02-04T06:19:13.142Z,101927.13
2019-02-04T06:21:44.429Z,101930.78
2019-02-04T06:24:15.421Z,101930.15
2019-02-04T06:26:46.390Z,101932.83
2019-02-04T06:29:17.278Z,101929.72
2019-02-04T06:31:48.291Z,101926.83
2019-02-04T06:34:19.599Z,101935.32
2019-02-04T06:36:50.518Z,101930.97
2019-02-04T06:39:21.557Z,101938.95
2019-02-04T06:41:52.872Z,101938.61
2019-02-04T06:44:23.822Z,101941.47
2019-02-04T06:46:54.849Z,101937.77
2019-02-04T06:49:25.754Z,101947.05
2019-02-04T06:51:56.668Z,101949.56
2019-02-04T06:54:27.771Z,101951.63
2019-02-04T06:56:58.733Z,101947.35
2019-02-04T06:59:29.733Z,101959.03
2019-02-04T07:02:01.043Z,101961.00
2019-02-04T07:04:31.946Z,101964.61
2019-02-04T07:07:02.876Z,101966.70
2019-02-04T07:09:33.916Z,101963.28
2019-02-04T07:12:04.831Z,101961.08
2019-02-04T07:14:36.027Z,101964.50
2019-02-04T07:17:07.364Z,101961.16
2019-02-04T07:19:38.299Z,101968.94
2019-02-04T07:22:09.673Z,101957.34
2019-02-04T07:24:42.916Z,101954.42
2019-02-04T07:27:13.615Z,101949.05
2019-02-04T07:29:44.957Z,101957.40
2019-02-04T07:32:15.936Z,101952.00
2019-02-04T07:34:46.850Z,101948.41
2019-02-04T07:37:18.139Z,101951.82
2019-02-04T07:39:49.642Z,101950.69
2019-02-04T07:42:20.652Z,101945.46
2019-02-04T07:44:51.719Z,101953.97
2019-02-04T07:47:22.979Z,101948.06
2019-02-04T07:49:53.907Z,101937.26
2019-02-04T07:52:25.289Z,101937.39
2019-02-04T07:54:56.765Z,101940.51
2019-02-04T07:57:27.684Z,101930.60
2019-02-04T07:59:58.775Z,101941.12
2019-02-04T08:02:30.376Z,101951.20
2019-02-04T08:05:01.868Z,101943.30
2019-02-04T08:07:33.163Z,101933.77
2019-02-04T08:10:04.191Z,101935.31
2019-02-04T08:12:35.160Z,101938.70
2019-02-04T08:15:08.914Z,101933.06
2019-02-04T08:17:40.198Z,101929.30
2019-02-04T08:20:11.528Z,101930.59
2019-02-04T08:22:42.564Z,101925.92
2019-02-04T08:25:14.667Z,101926.97
2019-02-04T08:27:45.689Z,101924.65
2019-02-04T08:30:24.032Z,101922.83
2019-02-04T08:32:55.055Z,101924.85
2019-02-04T08:35:26.309Z,101916.61
2019-02-04T08:37:57.513Z,101914.25
2019-02-04T08:40:29.084Z,101914.05
2019-02-04T08:43:00.137Z,101909.39
2019-02-04T08:45:31.192Z,101914.97
2019-02-04T08:48:02.162Z,101924.92
2019-02-04T08:50:33.138Z,101921.85
2019-02-04T08:53:04.151Z,101921.02
2019-02-04T08:55:35.837Z,101919.62
2019-02-04T08:58:07.371Z,101910.86
2019-02-04T09:00:38.699Z,101914.94
2019-02-04T09:03:09.962Z,101914.33
2019-02-04T09:05:41.103Z,101919.34
2019-02-04T09:08:12.170Z,101920.27
2019-02-04T09:10:43.161Z,101909.15
2019-02-04T09:13:14.146Z,101907.33
2019-02-04T09:15:45.179Z,101900.41
2019-02-04T09:18:16.465Z,101900.72
2019-02-04T09:20:47.741Z,101903.17
2019-02-04T09:23:18.955Z,101900.38
2019-02-04T09:25:49.954Z,101900.58
2019-02-04T09:28:20.921Z,101903.36
2019-02-04T09:30:51.949Z,101908.02
2019-02-04T09:33:22.905Z,101902.44
2019-02-04T09:35:54.503Z,101903.30
2019-02-04T09:38:25.886Z,101907.68
2019-02-04T09:40:56.843Z,101898.34
2019-02-04T09:43:27.756Z,101892.53
2019-02-04T09:45:58.769Z,101881.82
2019-02-04T09:48:29.847Z,101886.42
2019-02-04T09:51:03.130Z,101889.25
2019-02-04T09:53:34.442Z,101891.52
2019-02-04T09:56:05.702Z,101895.84
2019-02-04T09:58:36.674Z,101894.23
2019-02-04T10:01:08.059Z,101891.19
2019-02-04T10:03:39.028Z,101898.06
2019-02-04T10:06:09.956Z,101890.34
2019-02-04T10:08:40.963Z,101894.01
2019-02-04T10:11:11.862Z,101895.78
2019-02-04T10:13:43.159Z,101895.41
2019-02-04T10:16:14.378Z,101901.50
2019-02-04T10:18:45.321Z,101895.70
2019-02-04T10:21:16.723Z,101898.65
2019-02-04T10:23:47.708Z,101890.47
2019-02-04T10:26:18.718Z,101897.34
2019-02-04T10:28:50.044Z,101895.61
2019-02-04T10:31:21.117Z,101892.94
2019-02-04T10:33:52.051Z,101899.39
2019-02-04T10:36:23.227Z,101893.37
2019-02-04T10:38:54.146Z,101887.37
2019-02-04T10:41:25.149Z,101886.87
2019-02-04T10:43:56.177Z,101884.81
2019-02-04T10:46:27.159Z,101873.31
2019-02-04T10:48:58.110Z,101870.66
2019-02-04T10:51:29.124Z,101875.32
2019-02-04T10:54:00.114Z,101873.19
2019-02-04T10:56:31.087Z,101873.63
2019-02-04T10:59:02.176Z,101870.97
2019-02-04T11:01:33.221Z,101867.08
2019-02-04T11:04:04.103Z,101861.66
2019-02-04T11:06:35.316Z,101860.77
2019-02-04T11:09:09.604Z,101851.34
2019-02-04T11:11:40.622Z,101850.13
2019-02-04T11:14:15.567Z,101848.38
2019-02-04T11:16:46.733Z,101853.55
2019-02-04T11:19:18.091Z,101857.44
2019-02-04T11:21:49.033Z,101849.28
2019-02-04T11:24:20.169Z,101853.44
2019-02-04T11:26:51.195Z,101852.99
2019-02-04T11:29:22.176Z,101853.50
2019-02-04T11:31:53.196Z,101850.91
2019-02-04T11:34:24.356Z,101850.05
2019-02-04T11:36:55.265Z,101846.25
2019-02-04T11:39:26.375Z,101837.67
2019-02-04T11:41:57.612Z,101836.45
2019-02-04T11:44:28.638Z,101833.53
2019-02-04T11:46:59.641Z,101825.75
2019-02-04T11:49:30.898Z,101827.33
2019-02-04T11:52:01.880Z,101822.24
2019-02-04T11:54:32.906Z,101819.69
2019-02-04T11:57:03.831Z,101820.56
2019-02-04T11:59:34.787Z,101817.98
2019-02-04T12:02:06.319Z,101818.45
2019-02-04T12:04:37.210Z,101818.83
2019-02-04T12:07:08.207Z,101820.59
2019-02-04T12:09:39.417Z,101813.72
2019-02-04T12:12:10.619Z,101819.70
2019-02-04T12:14:41.863Z,101825.66
2019-02-04T12:17:12.864Z,101824.89
2019-02-04T12:19:43.768Z,101825.33
2019-02-04T12:22:15.341Z,101828.85
2019-02-04T12:24:46.380Z,101828.89
2019-02-04T12:27:17.261Z,101830.21
2019-02-04T12:29:49.611Z,101830.66
2019-02-04T12:32:20.962Z,101830.59
2019-02-04T12:34:52.151Z,101826.73
2019-02-04T12:37:23.124Z,101828.88
2019-02-04T12:39:54.147Z,101825.12
2019-02-04T12:42:25.461Z,101817.83
2019-02-04T12:44:56.792Z,101819.52
2019-02-04T12:47:28.242Z,101822.89
2019-02-04T12:49:59.495Z,101821.61
2019-02-04T12:52:30.485Z,101814.83
2019-02-04T12:55:01.416Z,101815.30
2019-02-04T12:57:32.382Z,101814.36
2019-02-04T13:00:03.943Z,101806.72
2019-02-04T13:02:35.019Z,101804.53
2019-02-04T13:05:07.300Z,101804.09
2019-02-04T13:07:38.262Z,101813.55
2019-02-04T13:10:11.256Z,101817.02
2019-02-04T13:12:42.560Z,101808.87
2019-02-04T13:15:17.127Z,101812.23
2019-02-04T13:17:48.316Z,101813.98
2019-02-04T13:20:21.274Z,101809.28
2019-02-04T13:22:52.362Z,101813.17
2019-02-04T13:25:26.281Z,101809.30
2019-02-04T13:27:57.346Z,101811.42
2019-02-04T13:30:31.283Z,101807.16
2019-02-04T13:33:02.544Z,101807.52
2019-02-04T13:35:33.527Z,101803.28
2019-02-04T13:38:05.284Z,101800.72
2019-02-04T13:40:36.160Z,101800.28
2019-02-04T13:43:07.679Z,101801.16
2019-02-04T13:45:38.682Z,101796.78
2019-02-04T13:48:09.777Z,101795.56
2019-02-04T13:50:41.179Z,101796.02
2019-02-04T13:53:12.764Z,101789.15
2019-02-04T13:55:44.131Z,101788.77
2019-02-04T13:58:15.117Z,101788.27
2019-02-04T14:00:46.287Z,101781.03
2019-02-04T14:03:18.021Z,101780.20
2019-02-04T14:05:49.134Z,101771.58
2019-02-04T14:08:20.166Z,101773.33
2019-02-04T14:10:51.122Z,101770.84
2019-02-04T14:13:22.198Z,101769.09
2019-02-04T14:15:53.281Z,101768.16
2019-02-04T14:18:26.485Z,101761.80
2019-02-04T14:20:57.218Z,101764.77
2019-02-04T14:23:28.150Z,101770.00
2019-02-04T14:25:59.510Z,101760.19
2019-02-04T14:28:31.525Z,101764.48
2019-02-04T14:31:02.563Z,101751.70
2019-02-04T14:33:33.483Z,101754.23
2019-02-04T14:36:04.543Z,101747.38
2019-02-04T14:38:35.903Z,101752.94
2019-02-04T14:41:06.979Z,101753.83
2019-02-04T14:44:05.514Z,101753.83
2019-02-04T14:46:50.320Z,101752.08
2019-02-04T14:50:22.529Z,101754.19
2019-02-04T14:53:37.472Z,101755.97
2019-02-04T14:56:28.322Z,101750.39
2019-02-04T14:59:56.869Z,101750.42
2019-02-04T15:03:36.467Z,101744.89
2019-02-04T15:07:04.728Z,101743.21
2019-02-04T15:10:05.348Z,101734.25
2019-02-04T15:13:30.619Z,101738.55
2019-02-04T15:16:40.564Z,101741.13
2019-02-04T15:20:29.222Z,101739.84
2019-02-04T15:24:08.778Z,101743.73
2019-02-04T15:27:23.742Z,101734.28
2019-02-04T15:30:29.902Z,101730.45
2019-02-04T15:34:00.921Z,101724.91
2019-02-04T15:37:11.864Z,101721.05
2019-02-04T15:40:37.143Z,101712.52
2019-02-04T15:44:06.660Z,101719.34
2019-02-04T15:46:53.895Z,101710.80
2019-02-04T15:50:07.914Z,101705.27
2019-02-04T15:52:45.668Z,101703.59
2019-02-04T15:55:16.376Z,101698.03
2019-02-04T15:57:47.340Z,101704.45
2019-02-04T16:00:18.763Z,101703.19
2019-02-04T16:02:49.728Z,101697.63
2019-02-04T16:05:21.175Z,101695.95
2019-02-04T16:07:54.946Z,101694.69
2019-02-04T16:10:25.966Z,101695.97
2019-02-04T16:12:57.034Z,101693.80
2019-02-04T16:15:28.034Z,101694.27
2019-02-04T16:17:59.091Z,101692.97
2019-02-04T16:20:30.103Z,101684.42
2019-02-04T16:23:01.042Z,101683.56
2019-02-04T16:25:32.200Z,101680.58
2019-02-04T16:28:03.467Z,101683.56
2019-02-04T16:30:34.843Z,101687.00
2019-02-04T16:33:06.375Z,101686.98
2019-02-04T16:35:37.355Z,101686.12
2019-02-04T16:38:08.920Z,101686.14
2019-02-04T16:40:39.861Z,101682.30
2019-02-04T16:43:10.737Z,101687.01
2019-02-04T16:45:41.923Z,101682.72
2019-02-04T16:48:12.998Z,101682.28
2019-02-04T16:50:44.214Z,101684.84
2019-02-04T16:53:15.189Z,101697.68
2019-02-04T16:55:46.180Z,101695.98
2019-02-04T16:58:17.074Z,101699.83
2019-02-04T17:00:48.107Z,101697.69
2019-02-04T17:03:19.097Z,101706.22
2019-02-04T17:05:50.495Z,101702.83
2019-02-04T17:08:21.561Z,101708.80
2019-02-04T17:10:52.764Z,101700.27
2019-02-04T17:13:23.690Z,101704.97
2019-02-04T17:15:55.239Z,101702.38
2019-02-04T17:18:26.284Z,101699.83
2019-02-04T17:20:57.634Z,101705.38
2019-02-04T17:23:28.940Z,101699.38
2019-02-04T17:25:59.928Z,101698.98
2019-02-04T17:28:30.933Z,101704.09
2019-02-04T17:31:01.881Z,101704.50
2019-02-04T17:33:33.703Z,101701.50
2019-02-04T17:36:05.519Z,101698.09
2019-02-04T17:38:36.922Z,101697.23
2019-02-04T17:41:11.185Z,101698.10
2019-02-04T17:43:42.228Z,101698.52
2019-02-04T17:46:13.171Z,101689.55
2019-02-04T17:48:44.450Z,101681.45
2019-02-04T17:51:15.426Z,101685.30
2019-02-04T17:53:47.343Z,101687.87
2019-02-04T17:56:19.046Z,101687.03
2019-02-04T17:58:52.110Z,101683.61
2019-02-04T18:01:23.831Z,101682.73
2019-02-04T18:03:55.150Z,101672.47
2019-02-04T18:06:26.576Z,101665.65
2019-02-04T18:08:57.740Z,101663.92
2019-02-04T18:11:28.707Z,101665.23
2019-02-04T18:14:00.328Z,101666.92
2019-02-04T18:16:31.397Z,101655.38
2019-02-04T18:19:02.517Z,101650.70
2019-02-04T18:21:34.869Z,101656.64
2019-02-04T18:24:07.995Z,101656.66
2019-02-04T18:26:41.183Z,101654.09
2019-02-04T18:29:12.993Z,101657.50
2019-02-04T18:31:44.857Z,101657.48
2019-02-04T18:34:18.456Z,101653.22
2019-02-04T18:36:49.363Z,101655.34
2019-02-04T18:39:20.636Z,101650.25
2019-02-04T18:41:55.596Z,101640.42
2019-02-04T18:44:25.668Z,101640.82
2019-02-04T18:46:57.247Z,101641.26
2019-02-04T18:49:31.022Z,101638.27
2019-02-04T18:52:02.004Z,101645.09
2019-02-04T18:54:35.633Z,101641.23
2019-02-04T18:57:08.669Z,101641.25
2019-02-04T18:59:39.875Z,101645.96
2019-02-04T19:02:12.959Z,101648.09
2019-02-04T19:04:44.235Z,101645.93
2019-02-04T19:07:15.210Z,101648.91
2019-02-04T19:09:46.583Z,101644.64
2019-02-04T19:12:17.812Z,101638.25
2019-02-04T19:14:54.759Z,101638.67
2019-02-04T19:17:26.384Z,101636.55
2019-02-04T19:19:59.099Z,101636.52
2019-02-04T19:22:31.409Z,101635.23
2019-02-04T19:25:03.614Z,101642.93
2019-02-04T19:27:34.612Z,101640.37
2019-02-04T19:30:13.421Z,101631.42
2019-02-04T19:32:44.743Z,101638.70
2019-02-04T19:35:31.022Z,101630.99
2019-02-04T19:38:02.844Z,101633.54
2019-02-04T19:40:33.882Z,101630.14
2019-02-04T19:43:06.402Z,101635.27
2019-02-04T19:45:38.850Z,101626.30
2019-02-04T19:48:10.677Z,101616.44
2019-02-04T19:50:42.182Z,101622.42
2019-02-04T19:53:14.029Z,101613.45
2019-02-04T19:55:45.346Z,101610.91
2019-02-04T19:58:16.651Z,101609.19
2019-02-04T20:00:48.524Z,101600.23
2019-02-04T20:03:21.782Z,101604.91
2019-02-04T20:05:52.999Z,101593.36
2019-02-04T20:08:24.087Z,101593.38
2019-02-04T20:10:55.912Z,101603.22
2019-02-04T20:13:27.038Z,101599.79
2019-02-04T20:15:58.239Z,101594.66
2019-02-04T20:18:29.644Z,101592.95
2019-02-04T20:21:00.788Z,101590.83
2019-02-04T20:23:32.074Z,101589.09
2019-02-04T20:26:03.392Z,101595.09
2019-02-04T20:28:34.300Z,101586.15
2019-02-04T20:31:07.272Z,101589.98
2019-02-04T20:34:16.672Z,101590.80
2019-02-04T20:36:48.338Z,101584.41
2019-02-04T20:39:19.677Z,101583.95
2019-02-04T20:41:53.130Z,101586.09
2019-02-04T20:44:24.136Z,101581.38
2019-02-04T20:46:55.678Z,101584.38
2019-02-04T20:49:26.788Z,101575.80
2019-02-04T20:51:57.850Z,101575.80
2019-02-04T20:54:29.171Z,101563.88
2019-02-04T20:57:00.659Z,101578.84
2019-02-04T20:59:31.906Z,101570.30
2019-02-04T21:02:03.538Z,101566.86
2019-02-04T21:04:34.533Z,101575.84
2019-02-04T21:07:05.714Z,101575.01
2019-02-04T21:09:36.722Z,101584.80
2019-02-04T21:12:09.582Z,101586.95
2019-02-04T21:14:40.587Z,101593.76
2019-02-04T21:17:11.576Z,101600.63
2019-02-04T21:19:44.178Z,101589.07
2019-02-04T21:22:16.276Z,101593.80
2019-02-04T21:24:56.305Z,101602.38
2019-02-04T21:27:19.883Z,101607.01
2019-02-04T21:29:51.461Z,101620.25
2019-02-04T21:32:22.841Z,101613.86
2019-02-04T21:34:55.883Z,101610.03
2019-02-04T21:37:26.996Z,101619.00
2019-02-04T21:39:58.262Z,101622.00
2019-02-04T21:42:29.166Z,101625.43
2019-02-04T21:45:00.339Z,101621.56
2019-02-04T21:47:31.398Z,101619.84
2019-02-04T21:50:02.421Z,101622.01
2019-02-04T21:52:35.975Z,101620.69
2019-02-04T21:55:08.955Z,101624.50
2019-02-04T21:57:39.886Z,101614.69
2019-02-04T22:00:16.242Z,101618.16
2019-02-04T22:02:47.573Z,101615.11
2019-02-04T22:05:19.616Z,101616.83
2019-02-04T22:07:50.656Z,101615.10
2019-02-04T22:10:23.912Z,101615.91
2019-02-04T22:12:55.248Z,101612.52
2019-02-04T22:15:26.265Z,101612.09
2019-02-04T22:17:57.561Z,101615.97
2019-02-04T22:20:28.698Z,101607.82
2019-02-04T22:22:59.779Z,101607.43
2019-02-04T22:25:30.798Z,101608.69
2019-02-04T22:28:01.763Z,101609.53
2019-02-04T22:30:32.746Z,101611.65
2019-02-04T22:33:04.070Z,101607.36
2019-02-04T22:35:35.081Z,101606.91
2019-02-04T22:38:06.608Z,101607.77
2019-02-04T22:40:38.177Z,101604.77
2019-02-04T22:43:09.150Z,101611.59
2019-02-04T22:45:40.152Z,101613.30
2019-02-04T22:48:11.065Z,101612.45
2019-02-04T22:50:42.506Z,101612.43
2019-02-04T22:53:13.504Z,101610.73
2019-02-04T22:55:44.419Z,101607.31
2019-02-04T22:58:15.778Z,101611.61
2019-02-04T23:01:29.333Z,101611.15
2019-02-04T23:04:00.327Z,101606.48
2019-02-04T23:06:31.616Z,101607.80
2019-02-04T23:09:03.892Z,101608.62
2019-02-04T23:11:34.933Z,101598.36
2019-02-04T23:14:06.737Z,101603.86
2019-02-04T23:16:38.071Z,101605.19
2019-02-04T23:19:09.849Z,101606.03
2019-02-04T23:21:41.220Z,101606.44
2019-02-04T23:24:12.314Z,101600.06
2019-02-04T23:26:43.427Z,101606.02
2019-02-04T23:29:14.322Z,101593.16
2019-02-04T23:31:45.266Z,101591.05
2019-02-04T23:34:16.555Z,101598.28
2019-02-04T23:36:47.841Z,101597.87
2019-02-04T23:39:19.148Z,101596.11
2019-02-04T23:41:50.160Z,101593.95
2019-02-04T23:44:21.249Z,101587.17
2019-02-04T23:46:52.556Z,101601.27
2019-02-04T23:49:23.594Z,101591.88
2019-02-04T23:51:54.603Z,101584.63
2019-02-04T23:54:25.951Z,101586.80
2019-02-04T23:56:56.913Z,101599.17
2019-02-04T23:59:28.207Z,101596.61
